Hauptseite
METAR-TAF:

METAR-TAF

Flughäfen :

Dodge City Regional Airport

Dodge City, Kansas, Vereinigte Staaten

Breite: 37-46-22N, Länge: 099-58-11W, Höhe: 790 m

Beobachtung

Neuester Wetterbericht von vor 1 Stunde und 0 Minuten, um 06:52 UTC
Wind 13 kt aus Süd, Böen bis zu 21 kt
Temperatur 26°C
Luftfeuchtigkeit 48%
Luftdruck 1017 hPa
Sichtweite: 16.1 km
Himmel klar

METAR: KDDC 130652Z AUTO 19013G21KT 10SM CLR 26/14 A3002 RMK AO2 SLP124 T02610144

Zeit: 02:52 (07:52 UTC)

Prognose

Neuester Wetterbericht von vor 2 Stunden und 32 Minuten, um 05:20 UTC
Gültige Prognose vom 13 um 06 UTC bis 14 um 06 UTC
Wind 10 kt aus Süd
Sichtweite: 10 km
Leicht bewölkt in der Höhe von 25000 ft
Ab 13 um 1400 UTC
Wind 15 kt aus Süd/Südwest, Böen bis zu 25 kt
Sichtweite: 10 km
Himmel klar

TAF: KDDC 130520Z 1306/1406 19010KT P6SM FEW250 WS020/20045KT FM131400 21015G25KT P6SM SKC

Wetterbeobachtungen und Prognosen von mehr als 4000 Flughäfen (METAR und TAF Bericht).

Die verfügbaren Stationen werden durch gelbe und rote Markierungen auf der Karte dargestellt.

Führen Sie die Maus auf sie, um den Namen der Station zu sehen.

Darauf klicken, um die Beobachtung von Wetterbeobachtungen und Prognosen zu sehen.

Um die Karte zu ändern : klicken Sie auf den grünen Tasten mit einem schwarzen Kreuz Zum Vergrößern, auf den grünen Button mit einem Gedankenstrich zu verkleinern, oder auf die grünen Pfeile für benachbarte Karten.


METAR-TAF: